Amboy, MN

7:06 PM CST on February 22, 2017 (GMT -0600)
Golly Farms | | Change Station
Active Advisory: Blizzard Watch

Elev 1079 ft 43.80 °N, 94.20 °W | Updated 6 minutes ago

Partly Cloudy
Partly Cloudy
44.4 °F
Feels Like 42 °F
N
5.0
Wind Variable Wind from WSW
Gusts 17.0 mph

Today
High -- | Low -- °F
--% Chance of Precip.
Yesterday
High -- | Low -- °F
Precip. -- in
Pressure 29.72 in
Visibility 10.0 miles
Clouds Mostly Cloudy 1400 ft
Windchill 42 °F
Dew Point 41 °F
Humidity 88%
Rainfall 0.00 in
Snow Depth Not available.
7:04 AM 5:56 PM
Waning Crescent, 14% visible
METAR KJYG 230052Z AUTO 29017G23KT 10SM BKN014 06/04 A2972 RMK AO2
Pressure 29.72 in
Visibility 10.0 miles
Clouds Mostly Cloudy 1400 ft
Windchill 42 °F
Dew Point 41 °F
Humidity 88%
Rainfall 0.00 in
Snow Depth Not available.
7:04 AM 5:56 PM
Waning Crescent, 14% visible
METAR KJYG 230052Z AUTO 29017G23KT 10SM BKN014 06/04 A2972 RMK AO2

Get Your Daily Forecast Email!

Thanks for signing up!

Be on the lookout for a verification email in your inbox.

You'll start receiving the daily forecast at 8 AM.

×

10-Day Weather Forecast

Almanac

Astronomy

Feb. 22, 2017 Rise Set
Actual Time
Civil Twilight
Nautical Twilight
Astronomical Twilight
Moon
Length of Visible Light
Length of Day
Tomorrow will be .
, % of the Moon is Illuminated

Today's Extremes

State Highs State Lows

Community

WunderPhotos

Upload Photos

1,962,540 photos uploaded!

WunderBlog® & News

Nearby

Air Quality

  Air Quality AQ Index Pollutant
Not available.

Snow Depth

Station Depth Elevation

Earthquake Activity

City Distance Mag. Time & Date
Minimum magnitude displayed is 2.5.

Coastal Water Temperatures

Place Temperature

Stations

Nearby Weather Stations

Station Location Temp. Windchill Dew Point Humidity Wind Precip. Elev Updated Type
                   

Watches & Warnings

Blizzard Watch
Issued: 3:26 PM CST Feb. 22, 2017 – National Weather Service

... Blizzard watch in effect from Thursday evening through Friday
evening...
... Winter Storm Watch is cancelled...

The National Weather Service in Twin Cities/Chanhassen has issued
a blizzard watch, which is in effect from Thursday evening
through Friday evening. The Winter Storm Watch has been
cancelled.


* Timing... heavy snow will develop Thursday night, with increasing
winds on Friday.

* Winds/visibility... whiteout conditions are possible, especially
in open areas.

* Snow accumulations... 6 to 12 inches are likely, with amounts
in excess of 12 inches possible.

* Winds... northeast to northwest 20 to 30 mph with gusts to 40
mph resulting in considerable blowing snow and possible
blizzard conditions.

Precautionary/preparedness actions...

A blizzard watch means there is a potential for falling and/or
blowing snow with strong winds and extremely poor visibilities.
This can lead to whiteout conditions and make travel very
dangerous.